Back to Top

Language: 

My Weather Underground Personal Weather Station Historical Data with Graphs...

Delerius Weather Station Historical Data
Daily Summary for October 10, 2017 Units:  Metric    English   Both
« Previous Day
Next Day »
Daily Weekly Monthly Yearly Custom
  High: Low: Average:
Temperature: 17.1 °C 12.7 °C 14.6 °C
Dew Point: 13.1 °C 9.3 °C 11.6 °C
Humidity: 93 % 67 % 82 %
Wind Speed: 20.9 km/h 3.2 km/h 13.8 km/h
Wind Gust: 41.8 km/h - -
Wind:- - WSW
Pressure: 1012.4 hPa 1007.3 hPa -
Precipitation: 0.51 mm    
Historical Graphs
 
 
Tabular Data for October 10, 2017
Time Temperature Dew Point Pressure Wind Wind Speed Wind Gust Humidity Rainfall Rate (Hourly) solar Conditions
00:00 12.7 °C 11.1 °C 1012.4 hPa WSW 9.7 km/h 17.7 km/h 90 % 0 mm 0 W/m2
00:05 12.8 °C 11.2 °C 1012.4 hPa WSW 11.3 km/h 17.7 km/h 90 % 0 mm 0 W/m2
00:10 12.9 °C 11.3 °C 1012.4 hPa WSW 9.7 km/h 16.1 km/h 90 % 0 mm 0 W/m2
00:16 12.9 °C 11.1 °C 1012.1 hPa WSW 11.3 km/h 19.3 km/h 89 % 0 mm 0 W/m2
00:21 13 °C 11.2 °C 1012.1 hPa SW 11.3 km/h 20.9 km/h 89 % 0 mm 0 W/m2
00:26 13.1 °C 11.3 °C 1012.1 hPa SW 12.9 km/h 20.9 km/h 89 % 0 mm 0 W/m2
00:31 13.1 °C 11.3 °C 1012.1 hPa SW 11.3 km/h 20.9 km/h 89 % 0 mm 0 W/m2
00:36 13.1 °C 11.3 °C 1012.1 hPa SW 11.3 km/h 17.7 km/h 89 % 0 mm 0 W/m2
00:41 13.1 °C 11.3 °C 1011.7 hPa WSW 9.7 km/h 17.7 km/h 89 % 0 mm 0 W/m2
00:46 13.1 °C 11.3 °C 1011.7 hPa SW 9.7 km/h 17.7 km/h 89 % 0 mm 0 W/m2
00:51 13.2 °C 11.4 °C 1011.7 hPa SW 9.7 km/h 17.7 km/h 89 % 0 mm 0 W/m2
00:56 13.2 °C 11.4 °C 1011.7 hPa WSW 9.7 km/h 16.1 km/h 89 % 0 mm 0 W/m2
01:01 13.2 °C 11.4 °C 1011.4 hPa SW 8 km/h 14.5 km/h 89 % 0 mm 0 W/m2
01:06 13.2 °C 11.4 °C 1011.4 hPa SW 8 km/h 12.9 km/h 89 % 0 mm 0 W/m2
01:11 13.2 °C 11.6 °C 1011.7 hPa SW 8 km/h 16.1 km/h 90 % 0 mm 0 W/m2
01:16 13.2 °C 11.6 °C 1011.4 hPa SW 9.7 km/h 19.3 km/h 90 % 0 mm 0 W/m2
01:21 13.2 °C 11.6 °C 1011.4 hPa WSW 11.3 km/h 20.9 km/h 90 % 0 mm 0 W/m2
01:26 13.3 °C 11.9 °C 1011.4 hPa WSW 11.3 km/h 20.9 km/h 91 % 0 mm 0 W/m2
01:31 13.3 °C 11.9 °C 1011.4 hPa WSW 12.9 km/h 24.1 km/h 91 % 0 mm 0 W/m2
01:36 13.3 °C 11.9 °C 1011.4 hPa WSW 14.5 km/h 24.1 km/h 91 % 0 mm 0 W/m2
01:46 13.4 °C 11.9 °C 1011.1 hPa SW 12.9 km/h 20.9 km/h 91 % 0 mm 0 W/m2
01:51 13.4 °C 11.9 °C 1011.1 hPa SW 14.5 km/h 20.9 km/h 91 % 0 mm 0 W/m2
01:56 13.4 °C 12.1 °C 1011.1 hPa SW 12.9 km/h 22.5 km/h 92 % 0 mm 0 W/m2
02:01 13.5 °C 12.2 °C 1011.1 hPa SW 12.9 km/h 22.5 km/h 92 % 0 mm 0 W/m2
02:06 13.5 °C 12.2 °C 1011.1 hPa WSW 12.9 km/h 22.5 km/h 92 % 0 mm 0 W/m2
02:11 13.7 °C 12.3 °C 1011.1 hPa WSW 16.1 km/h 30.6 km/h 91 % 0 mm 0 W/m2
02:16 13.9 °C 12.4 °C 1011.1 hPa WSW 17.7 km/h 30.6 km/h 91 % 0 mm 0 W/m2
02:21 14.2 °C 12.6 °C 1011.1 hPa WSW 16.1 km/h 30.6 km/h 90 % 0 mm 0 W/m2
02:26 14.3 °C 12.5 °C 1011.1 hPa WSW 17.7 km/h 29 km/h 89 % 0 mm 0 W/m2
02:31 14.3 °C 12.3 °C 1011.1 hPa WSW 17.7 km/h 29 km/h 88 % 0 mm 0 W/m2
02:32 14.4 °C 12.4 °C 1011.1 hPa WSW 16.1 km/h 29 km/h 88 % 0 mm 0 W/m2
02:38 14.4 °C 12.4 °C 1011.1 hPa WSW 17.7 km/h 33.8 km/h 88 % 0 mm 0 W/m2
02:43 14.5 °C 12.3 °C 1011.1 hPa WSW 19.3 km/h 35.4 km/h 87 % 0 mm 0 W/m2
02:48 14.6 °C 12.4 °C 1010.7 hPa WSW 17.7 km/h 35.4 km/h 87 % 0 mm 0 W/m2
02:53 14.6 °C 12.4 °C 1010.7 hPa WSW 16.1 km/h 30.6 km/h 87 % 0 mm 0 W/m2
02:58 14.6 °C 12.4 °C 1010.7 hPa WSW 17.7 km/h 32.2 km/h 87 % 0 mm 0 W/m2
03:03 14.6 °C 12.4 °C 1010.7 hPa WSW 17.7 km/h 32.2 km/h 87 % 0 mm 0 W/m2
03:08 14.5 °C 12.3 °C 1010.7 hPa WSW 17.7 km/h 29 km/h 87 % 0 mm 0 W/m2
03:13 14.5 °C 12.3 °C 1010.7 hPa WSW 17.7 km/h 30.6 km/h 87 % 0 mm 0 W/m2
03:18 14.6 °C 12.4 °C 1010.4 hPa WSW 17.7 km/h 30.6 km/h 87 % 0 mm 0 W/m2
03:23 14.6 °C 12.4 °C 1010.4 hPa WSW 17.7 km/h 32.2 km/h 87 % 0 mm 0 W/m2
03:28 14.6 °C 12.4 °C 1010.4 hPa WSW 19.3 km/h 40.2 km/h 87 % 0 mm 0 W/m2
03:33 14.6 °C 12.4 °C 1010.4 hPa WSW 20.9 km/h 40.2 km/h 87 % 0 mm 0 W/m2
03:38 14.6 °C 12.4 °C 1010.4 hPa WSW 19.3 km/h 35.4 km/h 87 % 0 mm 0 W/m2
03:43 14.6 °C 12.4 °C 1010.4 hPa WSW 19.3 km/h 33.8 km/h 87 % 0 mm 0 W/m2
03:48 14.6 °C 12.4 °C 1010.4 hPa WSW 19.3 km/h 38.6 km/h 87 % 0 mm 0 W/m2
03:53 14.5 °C 12.3 °C 1010.4 hPa WSW 19.3 km/h 38.6 km/h 87 % 0 mm 0 W/m2
03:58 14.5 °C 12.3 °C 1010 hPa WSW 19.3 km/h 37 km/h 87 % 0 mm 0 W/m2
04:04 14.5 °C 12.3 °C 1010 hPa WSW 19.3 km/h 37 km/h 87 % 0 mm 0 W/m2
04:09 14.5 °C 12.6 °C 1010 hPa WSW 19.3 km/h 33.8 km/h 88 % 0 mm 0 W/m2
04:14 14.4 °C 12.4 °C 1010 hPa WSW 19.3 km/h 33.8 km/h 88 % 0 mm 0 W/m2
04:19 14.4 °C 12.4 °C 1010 hPa WSW 17.7 km/h 32.2 km/h 88 % 0 mm 0 W/m2
04:21 14.4 °C 12.4 °C 1010 hPa WSW 17.7 km/h 32.2 km/h 88 % 0 mm 0 W/m2
04:23 14.4 °C 12.4 °C 1010 hPa WSW 16.1 km/h 32.2 km/h 88 % 0 mm 0 W/m2
04:28 14.3 °C 12.3 °C 1010 hPa WSW 16.1 km/h 30.6 km/h 88 % 0 mm 0 W/m2
04:33 14.3 °C 12.5 °C 1010 hPa WSW 14.5 km/h 30.6 km/h 89 % 0 mm 0 W/m2
04:38 14.2 °C 12.4 °C 1010 hPa WSW 16.1 km/h 25.7 km/h 89 % 0 mm 0 W/m2
04:43 14.1 °C 12.5 °C 1010 hPa WSW 17.7 km/h 29 km/h 90 % 0 mm 0 W/m2
04:48 14 °C 12.4 °C 1010 hPa WSW 17.7 km/h 29 km/h 90 % 0 mm 0 W/m2
04:53 13.9 °C 12.3 °C 1010 hPa WSW 16.1 km/h 29 km/h 90 % 0 mm 0 W/m2
04:58 13.9 °C 12.3 °C 1010 hPa WSW 14.5 km/h 29 km/h 90 % 0 mm 0 W/m2
05:03 13.9 °C 12.4 °C 1010 hPa WSW 14.5 km/h 29 km/h 91 % 0 mm 0 W/m2
05:09 13.9 °C 12.4 °C 1010 hPa WSW 16.1 km/h 25.7 km/h 91 % 0 mm 0 W/m2
05:14 13.8 °C 12.3 °C 1010 hPa WSW 14.5 km/h 25.7 km/h 91 % 0 mm 0 W/m2
05:19 13.8 °C 12.3 °C 1010 hPa WSW 16.1 km/h 25.7 km/h 91 % 0 mm 0 W/m2
05:29 13.9 °C 12.4 °C 1010 hPa WSW 16.1 km/h 24.1 km/h 91 % 0 mm 0 W/m2
05:34 14 °C 12.4 °C 1009.7 hPa WSW 16.1 km/h 32.2 km/h 90 % 0 mm 0 W/m2
05:39 14.1 °C 12.5 °C 1009.7 hPa WSW 16.1 km/h 32.2 km/h 90 % 0 mm 0 W/m2
05:44 14.1 °C 12.5 °C 1009.7 hPa WSW 16.1 km/h 29 km/h 90 % 0 mm 0 W/m2
05:49 14.1 °C 12.3 °C 1009.7 hPa WSW 16.1 km/h 29 km/h 89 % 0 mm 0 W/m2
05:54 14.1 °C 12.3 °C 1009.7 hPa WSW 16.1 km/h 32.2 km/h 89 % 0 mm 0 W/m2
05:59 14.2 °C 12.4 °C 1009.7 hPa WSW 16.1 km/h 32.2 km/h 89 % 0 mm 0 W/m2
06:04 14.1 °C 12.3 °C 1009.7 hPa WSW 12.9 km/h 24.1 km/h 89 % 0 mm 0 W/m2
06:09 14.1 °C 12.3 °C 1009.7 hPa WSW 14.5 km/h 25.7 km/h 89 % 0 mm 0 W/m2
06:14 14.1 °C 12.3 °C 1009.7 hPa WSW 16.1 km/h 32.2 km/h 89 % 0 mm 0 W/m2
06:19 14 °C 12.2 °C 1009.7 hPa WSW 16.1 km/h 32.2 km/h 89 % 0 mm 0 W/m2
06:24 13.9 °C 12.1 °C 1009.7 hPa WSW 14.5 km/h 29 km/h 89 % 0 mm 0 W/m2
06:29 13.9 °C 12.1 °C 1009.7 hPa WSW 16.1 km/h 29 km/h 89 % 0 mm 0 W/m2
06:34 13.9 °C 12.3 °C 1009.7 hPa WSW 17.7 km/h 29 km/h 90 % 0 mm 0 W/m2
06:39 13.9 °C 12.3 °C 1009.7 hPa WSW 16.1 km/h 29 km/h 90 % 0 mm 0 W/m2
06:44 13.9 °C 12.3 °C 1010 hPa WSW 14.5 km/h 22.5 km/h 90 % 0 mm 0 W/m2
06:49 13.8 °C 12.2 °C 1009.7 hPa WSW 16.1 km/h 24.1 km/h 90 % 0 mm 0 W/m2
06:54 13.9 °C 12.3 °C 1009.7 hPa WSW 16.1 km/h 25.7 km/h 90 % 0 mm 0 W/m2
06:59 14 °C 12.2 °C 1009.7 hPa WSW 17.7 km/h 32.2 km/h 89 % 0 mm 0 W/m2
07:04 14 °C 12.1 °C 1009.7 hPa WSW 17.7 km/h 32.2 km/h 88 % 0 mm 0 W/m2
07:09 14.1 °C 12.2 °C 1009.7 hPa West 16.1 km/h 29 km/h 88 % 0 mm 0 W/m2
07:14 14.1 °C 12.2 °C 1009.7 hPa West 16.1 km/h 24.1 km/h 88 % 0 mm 0 W/m2
07:19 14.1 °C 12.2 °C 1009.7 hPa West 16.1 km/h 25.7 km/h 88 % 0 mm 0 W/m2
07:24 14.2 °C 12.1 °C 1009.7 hPa West 16.1 km/h 30.6 km/h 87 % 0 mm 0 W/m2
07:29 14.2 °C 12.1 °C 1009.7 hPa West 14.5 km/h 30.6 km/h 87 % 0 mm 0 W/m2
07:34 14.2 °C 12.1 °C 1010 hPa West 14.5 km/h 24.1 km/h 87 % 0 mm 0 W/m2
07:39 14.2 °C 12.1 °C 1010 hPa WSW 14.5 km/h 24.1 km/h 87 % 0 mm 0 W/m2
07:44 14.2 °C 12.2 °C 1010 hPa WSW 12.9 km/h 22.5 km/h 88 % 0 mm 5 W/m2
07:49 14.2 °C 12.2 °C 1010 hPa WSW 9.7 km/h 17.7 km/h 88 % 0 mm 7 W/m2
07:54 14.1 °C 12.3 °C 1010 hPa West 9.7 km/h 17.7 km/h 89 % 0 mm 7 W/m2
07:59 14 °C 12.2 °C 1010 hPa West 8 km/h 17.7 km/h 89 % 0.51 mm 7 W/m2
08:04 13.9 °C 12.3 °C 1010 hPa West 8 km/h 12.9 km/h 90 % 0.51 mm 9 W/m2
08:09 13.8 °C 12.3 °C 1010 hPa West 8 km/h 12.9 km/h 91 % 0.51 mm 21 W/m2
08:19 13.7 °C 12.4 °C 1010 hPa WSW 3.2 km/h 8 km/h 92 % 0.51 mm 28 W/m2
08:24 13.6 °C 12.3 °C 1010 hPa WSW 3.2 km/h 9.7 km/h 92 % 0.51 mm 42 W/m2
08:30 13.6 °C 12.5 °C 1010 hPa SW 6.4 km/h 14.5 km/h 93 % 0.51 mm 37 W/m2
08:35 13.6 °C 12.5 °C 1010 hPa SW 6.4 km/h 14.5 km/h 93 % 0.51 mm 39 W/m2
08:40 13.6 °C 12.5 °C 1010 hPa SW 4.8 km/h 9.7 km/h 93 % 0.51 mm 28 W/m2
08:45 13.6 °C 12.5 °C 1010 hPa SW 3.2 km/h 9.7 km/h 93 % 0.51 mm 37 W/m2
08:50 13.6 °C 12.5 °C 1010 hPa SW 6.4 km/h 12.9 km/h 93 % 0.51 mm 42 W/m2
08:55 13.7 °C 12.6 °C 1010 hPa WSW 8 km/h 12.9 km/h 93 % 0.51 mm 53 W/m2
09:00 13.7 °C 12.6 °C 1010.4 hPa WSW 8 km/h 16.1 km/h 93 % 0.25 mm 60 W/m2
09:05 13.7 °C 12.6 °C 1010 hPa WSW 9.7 km/h 17.7 km/h 93 % 0.25 mm 62 W/m2
09:10 13.8 °C 12.7 °C 1010 hPa WSW 9.7 km/h 17.7 km/h 93 % 0 mm 98 W/m2
09:15 13.8 °C 12.7 °C 1010.4 hPa WSW 9.7 km/h 16.1 km/h 93 % 0 mm 113 W/m2
09:20 13.9 °C 12.6 °C 1010.4 hPa WSW 9.7 km/h 17.7 km/h 92 % 0 mm 111 W/m2
09:25 14 °C 12.7 °C 1010.4 hPa West 11.3 km/h 20.9 km/h 92 % 0 mm 134 W/m2
09:30 14.1 °C 12.8 °C 1010.4 hPa West 11.3 km/h 20.9 km/h 92 % 0 mm 128 W/m2
09:35 14.1 °C 12.8 °C 1010.4 hPa WSW 12.9 km/h 25.7 km/h 92 % 0 mm 134 W/m2
09:40 14.2 °C 12.9 °C 1010.4 hPa WSW 14.5 km/h 25.7 km/h 92 % 0 mm 148 W/m2
09:45 14.2 °C 12.8 °C 1010.4 hPa WSW 12.9 km/h 24.1 km/h 91 % 0 mm 178 W/m2
09:50 14.3 °C 12.8 °C 1010.4 hPa West 12.9 km/h 20.9 km/h 91 % 0 mm 162 W/m2
09:55 14.4 °C 12.9 °C 1010.4 hPa WSW 11.3 km/h 20.9 km/h 91 % 0 mm 169 W/m2
10:00 14.5 °C 12.9 °C 1010.4 hPa WSW 12.9 km/h 22.5 km/h 90 % 0 mm 185 W/m2
10:05 14.6 °C 13 °C 1010.4 hPa WSW 14.5 km/h 24.1 km/h 90 % 0 mm 193 W/m2
10:10 14.6 °C 12.8 °C 1010.4 hPa WSW 16.1 km/h 24.1 km/h 89 % 0 mm 172 W/m2
10:15 14.7 °C 12.9 °C 1010.4 hPa WSW 14.5 km/h 24.1 km/h 89 % 0 mm 204 W/m2
10:20 14.7 °C 12.9 °C 1010.4 hPa WSW 14.5 km/h 29 km/h 89 % 0 mm 239 W/m2
10:25 14.7 °C 12.9 °C 1010.7 hPa WSW 14.5 km/h 29 km/h 89 % 0 mm 111 W/m2
10:30 14.8 °C 13 °C 1010.7 hPa WSW 14.5 km/h 24.1 km/h 89 % 0 mm 111 W/m2
10:35 14.7 °C 12.9 °C 1010.7 hPa West 12.9 km/h 24.1 km/h 89 % 0 mm 97 W/m2
10:40 14.7 °C 12.9 °C 1010.7 hPa West 12.9 km/h 20.9 km/h 89 % 0 mm 53 W/m2
10:45 14.6 °C 13 °C 1010.7 hPa West 12.9 km/h 22.5 km/h 90 % 0 mm 134 W/m2
10:50 14.6 °C 13 °C 1011.1 hPa West 14.5 km/h 22.5 km/h 90 % 0 mm 156 W/m2
10:55 14.5 °C 12.9 °C 1010.7 hPa West 12.9 km/h 20.9 km/h 90 % 0 mm 167 W/m2
11:00 14.5 °C 12.9 °C 1010.7 hPa West 14.5 km/h 30.6 km/h 90 % 0 mm 200 W/m2
11:05 14.6 °C 12.8 °C 1010.7 hPa West 16.1 km/h 30.6 km/h 89 % 0 mm 243 W/m2
11:10 14.7 °C 12.6 °C 1010.7 hPa West 17.7 km/h 35.4 km/h 87 % 0 mm 269 W/m2
11:15 14.8 °C 12.7 °C 1010.7 hPa West 17.7 km/h 35.4 km/h 87 % 0 mm 209 W/m2
11:20 14.9 °C 12.6 °C 1010.7 hPa West 16.1 km/h 25.7 km/h 86 % 0 mm 244 W/m2
11:25 15 °C 12.5 °C 1010.7 hPa West 14.5 km/h 25.7 km/h 85 % 0 mm 306 W/m2
11:30 15.1 °C 12.4 °C 1010.7 hPa West 16.1 km/h 29 km/h 84 % 0 mm 232 W/m2
11:35 15 °C 12.1 °C 1010.7 hPa WSW 17.7 km/h 29 km/h 83 % 0 mm 262 W/m2
11:40 14.9 °C 12.2 °C 1011.1 hPa West 16.1 km/h 29 km/h 84 % 0 mm 186 W/m2
11:46 14.9 °C 12.4 °C 1010.7 hPa West 14.5 km/h 22.5 km/h 85 % 0 mm 225 W/m2
11:51 15 °C 12.5 °C 1010.7 hPa West 16.1 km/h 25.7 km/h 85 % 0 mm 352 W/m2
11:56 15.2 °C 12.7 °C 1010.4 hPa WSW 16.1 km/h 25.7 km/h 85 % 0 mm 422 W/m2
12:01 15.4 °C 12.7 °C 1010.4 hPa West 14.5 km/h 25.7 km/h 84 % 0 mm 308 W/m2
12:06 15.6 °C 12.7 °C 1010.7 hPa West 16.1 km/h 25.7 km/h 83 % 0 mm 322 W/m2
12:11 15.6 °C 12.6 °C 1010.4 hPa West 16.1 km/h 25.7 km/h 82 % 0 mm 374 W/m2
12:16 15.7 °C 12.8 °C 1010.4 hPa West 14.5 km/h 24.1 km/h 83 % 0 mm 318 W/m2
12:21 15.8 °C 12.7 °C 1010.7 hPa West 12.9 km/h 25.7 km/h 82 % 0 mm 274 W/m2
12:26 15.8 °C 12.3 °C 1010.7 hPa West 16.1 km/h 30.6 km/h 80 % 0 mm 274 W/m2
12:31 15.7 °C 12.3 °C 1010.7 hPa West 19.3 km/h 33.8 km/h 80 % 0 mm 257 W/m2
12:36 15.8 °C 12.6 °C 1010.7 hPa West 19.3 km/h 33.8 km/h 81 % 0 mm 253 W/m2
12:41 15.8 °C 12.6 °C 1010.7 hPa West 16.1 km/h 29 km/h 81 % 0 mm 248 W/m2
12:46 15.8 °C 12.6 °C 1010.7 hPa WNW 16.1 km/h 25.7 km/h 81 % 0 mm 221 W/m2
12:51 15.8 °C 12.6 °C 1010.7 hPa WNW 14.5 km/h 25.7 km/h 81 % 0 mm 248 W/m2
12:56 15.9 °C 12.7 °C 1010.7 hPa West 12.9 km/h 22.5 km/h 81 % 0 mm 311 W/m2
13:01 16 °C 12.7 °C 1010.7 hPa West 14.5 km/h 22.5 km/h 81 % 0 mm 376 W/m2
13:06 16.2 °C 12.9 °C 1010.4 hPa WNW 14.5 km/h 24.1 km/h 81 % 0 mm 366 W/m2
13:11 16.5 °C 13.1 °C 1010.4 hPa WNW 14.5 km/h 24.1 km/h 80 % 0 mm 264 W/m2
13:16 16.5 °C 12.7 °C 1010.4 hPa West 14.5 km/h 25.7 km/h 78 % 0 mm 334 W/m2
13:21 16.6 °C 12.9 °C 1010 hPa West 12.9 km/h 25.7 km/h 79 % 0 mm 257 W/m2
13:26 16.6 °C 12.9 °C 1010 hPa West 11.3 km/h 20.9 km/h 79 % 0 mm 253 W/m2
13:31 16.5 °C 12.7 °C 1010 hPa West 12.9 km/h 22.5 km/h 78 % 0 mm 246 W/m2
13:36 16.6 °C 12.7 °C 1010 hPa WSW 12.9 km/h 25.7 km/h 78 % 0 mm 243 W/m2
13:46 16.6 °C 12.6 °C 1009.7 hPa WSW 12.9 km/h 25.7 km/h 77 % 0 mm 248 W/m2
13:51 16.6 °C 12.3 °C 1009.7 hPa WSW 12.9 km/h 20.9 km/h 76 % 0 mm 241 W/m2
13:56 16.6 °C 12.2 °C 1009.7 hPa WSW 12.9 km/h 20.9 km/h 75 % 0 mm 223 W/m2
14:01 16.6 °C 11.9 °C 1009.7 hPa WSW 14.5 km/h 29 km/h 74 % 0 mm 204 W/m2
14:06 16.6 °C 11.9 °C 1009.7 hPa WSW 17.7 km/h 30.6 km/h 74 % 0 mm 192 W/m2
14:11 16.6 °C 11.9 °C 1009.7 hPa WSW 17.7 km/h 30.6 km/h 74 % 0 mm 188 W/m2
14:21 16.7 °C 12.1 °C 1009.4 hPa WSW 14.5 km/h 22.5 km/h 74 % 0 mm 267 W/m2
14:26 16.8 °C 12.1 °C 1009.4 hPa WSW 14.5 km/h 22.5 km/h 74 % 0 mm 267 W/m2
14:31 16.9 °C 12.2 °C 1009.4 hPa WSW 12.9 km/h 24.1 km/h 74 % 0 mm 253 W/m2
14:36 17.1 °C 12.4 °C 1009.4 hPa WSW 12.9 km/h 24.1 km/h 74 % 0 mm 246 W/m2
14:41 17.1 °C 12.2 °C 1009.4 hPa WSW 12.9 km/h 24.1 km/h 73 % 0 mm 216 W/m2
14:46 17.1 °C 12.4 °C 1009.4 hPa SW 12.9 km/h 20.9 km/h 74 % 0 mm 237 W/m2
14:51 17.1 °C 12.2 °C 1009.4 hPa SW 12.9 km/h 22.5 km/h 73 % 0 mm 220 W/m2
14:56 17.1 °C 12.2 °C 1009.4 hPa SW 14.5 km/h 25.7 km/h 73 % 0 mm 237 W/m2
15:01 17.1 °C 12.2 °C 1009 hPa WSW 16.1 km/h 25.7 km/h 73 % 0 mm 220 W/m2
15:06 17.1 °C 12 °C 1009 hPa WSW 17.7 km/h 30.6 km/h 72 % 0 mm 216 W/m2
15:11 17.1 °C 12.2 °C 1009 hPa WSW 17.7 km/h 30.6 km/h 73 % 0 mm 204 W/m2
15:16 17.1 °C 12.4 °C 1009.4 hPa WSW 14.5 km/h 24.1 km/h 74 % 0 mm 165 W/m2
15:21 17.1 °C 12.4 °C 1009 hPa WSW 14.5 km/h 24.1 km/h 74 % 0 mm 179 W/m2
15:27 17.1 °C 12.6 °C 1009 hPa WSW 12.9 km/h 20.9 km/h 75 % 0 mm 195 W/m2
15:32 17 °C 12.6 °C 1009 hPa WSW 14.5 km/h 22.5 km/h 75 % 0 mm 200 W/m2
15:37 17 °C 12.6 °C 1009 hPa WSW 14.5 km/h 22.5 km/h 75 % 0 mm 188 W/m2
15:42 16.9 °C 12.4 °C 1009 hPa SW 14.5 km/h 22.5 km/h 75 % 0 mm 178 W/m2
15:47 17 °C 12.6 °C 1009 hPa SW 12.9 km/h 22.5 km/h 75 % 0 mm 151 W/m2
15:52 17 °C 12.6 °C 1009 hPa WSW 11.3 km/h 19.3 km/h 75 % 0 mm 135 W/m2
15:57 17 °C 12.1 °C 1008.7 hPa WSW 12.9 km/h 25.7 km/h 73 % 0 mm 105 W/m2
16:02 16.9 °C 11.4 °C 1008.7 hPa SW 16.1 km/h 30.6 km/h 70 % 0 mm 113 W/m2
16:07 16.9 °C 10.9 °C 1008.7 hPa WSW 17.7 km/h 35.4 km/h 68 % 0 mm 95 W/m2
16:12 16.9 °C 10.7 °C 1008.7 hPa WSW 20.9 km/h 38.6 km/h 67 % 0 mm 86 W/m2
16:17 16.8 °C 10.6 °C 1008.7 hPa WSW 19.3 km/h 38.6 km/h 67 % 0 mm 72 W/m2
16:22 16.8 °C 10.8 °C 1008.7 hPa WSW 17.7 km/h 33.8 km/h 68 % 0 mm 60 W/m2
16:27 16.7 °C 11 °C 1008.7 hPa WSW 16.1 km/h 32.2 km/h 69 % 0 mm 54 W/m2
16:32 16.6 °C 11.1 °C 1009 hPa WSW 16.1 km/h 37 km/h 70 % 0 mm 47 W/m2
16:37 16.5 °C 11 °C 1009 hPa WSW 17.7 km/h 37 km/h 70 % 0 mm 44 W/m2
16:42 16.4 °C 10.9 °C 1008.7 hPa SW 17.7 km/h 29 km/h 70 % 0 mm 42 W/m2
16:47 16.3 °C 10.8 °C 1008.7 hPa WSW 16.1 km/h 32.2 km/h 70 % 0 mm 40 W/m2
16:52 16.2 °C 10.7 °C 1008.7 hPa WSW 14.5 km/h 32.2 km/h 70 % 0 mm 39 W/m2
16:57 16.2 °C 10.9 °C 1008.7 hPa WSW 12.9 km/h 22.5 km/h 71 % 0 mm 39 W/m2
17:02 16.1 °C 10.8 °C 1008.7 hPa SW 14.5 km/h 24.1 km/h 71 % 0 mm 39 W/m2
17:07 16 °C 10.7 °C 1008.7 hPa SW 14.5 km/h 24.1 km/h 71 % 0 mm 37 W/m2
17:12 15.9 °C 10.7 °C 1009 hPa SW 12.9 km/h 24.1 km/h 71 % 0 mm 30 W/m2
17:17 15.8 °C 10.8 °C 1008.7 hPa SW 12.9 km/h 24.1 km/h 72 % 0 mm 23 W/m2
17:22 15.7 °C 10.7 °C 1008.7 hPa SW 14.5 km/h 24.1 km/h 72 % 0 mm 21 W/m2
17:24 15.7 °C 10.7 °C 1008.7 hPa WSW 14.5 km/h 24.1 km/h 72 % 0 mm 19 W/m2
17:29 15.6 °C 10.6 °C 1008.7 hPa WSW 12.9 km/h 22.5 km/h 72 % 0 mm 16 W/m2
17:35 15.6 °C 10.8 °C 1008.7 hPa WSW 11.3 km/h 19.3 km/h 73 % 0 mm 18 W/m2
17:40 15.5 °C 10.7 °C 1008.7 hPa WSW 11.3 km/h 19.3 km/h 73 % 0 mm 19 W/m2
17:45 15.4 °C 10.6 °C 1008.7 hPa SW 9.7 km/h 25.7 km/h 73 % 0 mm 18 W/m2
17:50 15.4 °C 10.6 °C 1008.7 hPa WSW 11.3 km/h 25.7 km/h 73 % 0 mm 14 W/m2
17:55 15.3 °C 10.5 °C 1008.7 hPa West 11.3 km/h 29 km/h 73 % 0 mm 12 W/m2
18:00 15.3 °C 10.5 °C 1008.7 hPa WSW 12.9 km/h 29 km/h 73 % 0 mm 12 W/m2
18:05 15.2 °C 10.2 °C 1008.7 hPa WSW 12.9 km/h 22.5 km/h 72 % 0 mm 9 W/m2
18:10 15.1 °C 9.9 °C 1009 hPa WSW 16.1 km/h 30.6 km/h 71 % 0 mm 7 W/m2
18:15 15.1 °C 9.9 °C 1009 hPa WSW 17.7 km/h 30.6 km/h 71 % 0 mm 0 W/m2
18:20 15 °C 10 °C 1009 hPa WSW 16.1 km/h 30.6 km/h 72 % 0 mm 0 W/m2
18:25 14.9 °C 9.9 °C 1009 hPa WSW 16.1 km/h 30.6 km/h 72 % 0 mm 0 W/m2
18:30 14.8 °C 10 °C 1009 hPa SW 12.9 km/h 22.5 km/h 73 % 0 mm 0 W/m2
18:35 14.7 °C 10.1 °C 1008.7 hPa SW 14.5 km/h 35.4 km/h 74 % 0 mm 0 W/m2
18:40 14.6 °C 10 °C 1008.7 hPa SW 16.1 km/h 35.4 km/h 74 % 0 mm 0 W/m2
18:45 14.5 °C 9.9 °C 1008.7 hPa WSW 16.1 km/h 32.2 km/h 74 % 0 mm 0 W/m2
18:50 14.4 °C 9.8 °C 1008.7 hPa WSW 14.5 km/h 32.2 km/h 74 % 0 mm 0 W/m2
18:55 14.4 °C 9.8 °C 1008.7 hPa SW 11.3 km/h 25.7 km/h 74 % 0 mm 0 W/m2
19:00 14.3 °C 9.7 °C 1008.7 hPa SW 11.3 km/h 22.5 km/h 74 % 0 mm 0 W/m2
19:05 14.3 °C 9.7 °C 1008.7 hPa SW 12.9 km/h 22.5 km/h 74 % 0 mm 0 W/m2
19:10 14.2 °C 9.8 °C 1008.7 hPa SW 9.7 km/h 19.3 km/h 75 % 0 mm 0 W/m2
19:15 14.1 °C 9.7 °C 1008.7 hPa SSW 9.7 km/h 17.7 km/h 75 % 0 mm 0 W/m2
19:20 14 °C 9.6 °C 1008.7 hPa SSW 9.7 km/h 20.9 km/h 75 % 0 mm 0 W/m2
19:25 14 °C 9.8 °C 1008.7 hPa SW 9.7 km/h 20.9 km/h 76 % 0 mm 0 W/m2
19:30 13.9 °C 9.7 °C 1008.7 hPa SW 9.7 km/h 19.3 km/h 76 % 0 mm 0 W/m2
19:35 13.9 °C 9.7 °C 1008.7 hPa SW 9.7 km/h 19.3 km/h 76 % 0 mm 0 W/m2
19:40 13.9 °C 9.7 °C 1008.4 hPa SW 11.3 km/h 24.1 km/h 76 % 0 mm 0 W/m2
19:45 13.9 °C 9.7 °C 1008.4 hPa SW 11.3 km/h 25.7 km/h 76 % 0 mm 0 W/m2
19:50 13.9 °C 9.7 °C 1008.4 hPa SW 11.3 km/h 25.7 km/h 76 % 0 mm 0 W/m2
19:55 13.8 °C 9.7 °C 1008.4 hPa SW 11.3 km/h 20.9 km/h 76 % 0 mm 0 W/m2
20:00 13.8 °C 9.7 °C 1008.4 hPa SW 9.7 km/h 16.1 km/h 76 % 0 mm 0 W/m2
20:05 13.8 °C 9.4 °C 1008.4 hPa SW 8 km/h 16.1 km/h 75 % 0 mm 0 W/m2
20:10 13.7 °C 9.6 °C 1008.4 hPa SSW 11.3 km/h 19.3 km/h 76 % 0 mm 0 W/m2
20:15 13.7 °C 9.3 °C 1008.4 hPa SSW 12.9 km/h 19.3 km/h 75 % 0 mm 0 W/m2
20:20 13.7 °C 9.6 °C 1008.4 hPa SSW 11.3 km/h 20.9 km/h 76 % 0 mm 0 W/m2
20:25 13.7 °C 9.6 °C 1008.4 hPa SSW 11.3 km/h 20.9 km/h 76 % 0 mm 0 W/m2
20:30 13.7 °C 9.6 °C 1008.7 hPa SSW 9.7 km/h 17.7 km/h 76 % 0 mm 0 W/m2
20:35 13.6 °C 9.4 °C 1008.7 hPa SW 8 km/h 14.5 km/h 76 % 0 mm 0 W/m2
20:40 13.6 °C 9.7 °C 1008.4 hPa SSW 9.7 km/h 19.3 km/h 77 % 0 mm 0 W/m2
20:45 13.6 °C 9.7 °C 1008.4 hPa SSW 9.7 km/h 19.3 km/h 77 % 0 mm 0 W/m2
20:46 13.6 °C 9.7 °C 1008.4 hPa SSW 8 km/h 17.7 km/h 77 % 0 mm 0 W/m2
20:51 13.6 °C 9.7 °C 1008.4 hPa SSW 8 km/h 16.1 km/h 77 % 0 mm 0 W/m2
20:56 13.6 °C 9.7 °C 1008.4 hPa South 9.7 km/h 16.1 km/h 77 % 0 mm 0 W/m2
21:01 13.5 °C 9.6 °C 1008.4 hPa SSW 8 km/h 12.9 km/h 77 % 0 mm 0 W/m2
21:06 13.5 °C 9.6 °C 1008.4 hPa South 8 km/h 20.9 km/h 77 % 0 mm 0 W/m2
21:11 13.6 °C 9.7 °C 1008.4 hPa South 8 km/h 20.9 km/h 77 % 0 mm 0 W/m2
21:16 13.6 °C 9.7 °C 1008.4 hPa South 9.7 km/h 17.7 km/h 77 % 0 mm 0 W/m2
21:21 13.6 °C 9.7 °C 1008.4 hPa South 11.3 km/h 19.3 km/h 77 % 0 mm 0 W/m2
21:26 13.6 °C 9.7 °C 1008 hPa SSW 11.3 km/h 19.3 km/h 77 % 0 mm 0 W/m2
21:31 13.6 °C 9.7 °C 1008 hPa SSW 11.3 km/h 20.9 km/h 77 % 0 mm 0 W/m2
21:36 13.6 °C 9.7 °C 1008.4 hPa SSW 11.3 km/h 20.9 km/h 77 % 0 mm 0 W/m2
21:41 13.5 °C 9.7 °C 1008.4 hPa SW 11.3 km/h 19.3 km/h 78 % 0 mm 0 W/m2
21:46 13.5 °C 9.7 °C 1008.4 hPa SW 12.9 km/h 19.3 km/h 78 % 0 mm 0 W/m2
21:51 13.6 °C 9.8 °C 1008.4 hPa SW 12.9 km/h 20.9 km/h 78 % 0 mm 0 W/m2
21:56 13.6 °C 9.7 °C 1008 hPa SW 14.5 km/h 24.1 km/h 77 % 0 mm 0 W/m2
22:01 13.6 °C 9.7 °C 1008 hPa SW 12.9 km/h 24.1 km/h 77 % 0 mm 0 W/m2
22:06 13.6 °C 9.8 °C 1008 hPa SW 12.9 km/h 20.9 km/h 78 % 0 mm 0 W/m2
22:11 13.6 °C 9.8 °C 1008 hPa SW 12.9 km/h 22.5 km/h 78 % 0 mm 0 W/m2
22:16 13.5 °C 9.7 °C 1008 hPa SW 12.9 km/h 25.7 km/h 78 % 0 mm 0 W/m2
22:21 13.6 °C 9.7 °C 1008 hPa SW 16.1 km/h 35.4 km/h 77 % 0 mm 0 W/m2
22:26 13.7 °C 9.6 °C 1008 hPa SW 17.7 km/h 35.4 km/h 76 % 0 mm 0 W/m2
22:31 13.8 °C 9.7 °C 1008 hPa SW 16.1 km/h 29 km/h 76 % 0 mm 0 W/m2
22:36 13.8 °C 9.7 °C 1007.7 hPa WSW 17.7 km/h 33.8 km/h 76 % 0 mm 0 W/m2
22:41 13.8 °C 9.7 °C 1007.7 hPa SW 17.7 km/h 33.8 km/h 76 % 0 mm 0 W/m2
22:46 13.8 °C 9.7 °C 1007.7 hPa SW 14.5 km/h 30.6 km/h 76 % 0 mm 0 W/m2
22:51 13.8 °C 9.7 °C 1007.7 hPa WSW 14.5 km/h 24.1 km/h 76 % 0 mm 0 W/m2
22:56 13.7 °C 9.6 °C 1007.7 hPa WSW 14.5 km/h 25.7 km/h 76 % 0 mm 0 W/m2
23:01 13.7 °C 9.7 °C 1007.3 hPa WSW 16.1 km/h 30.6 km/h 77 % 0 mm 0 W/m2
23:06 13.8 °C 9.7 °C 1007.3 hPa SW 19.3 km/h 41.8 km/h 76 % 0 mm 0 W/m2
23:11 13.8 °C 9.8 °C 1007.3 hPa SW 17.7 km/h 41.8 km/h 77 % 0 mm 0 W/m2
23:16 13.8 °C 9.8 °C 1007.3 hPa SW 14.5 km/h 30.6 km/h 77 % 0 mm 0 W/m2
23:26 13.7 °C 9.9 °C 1007.3 hPa SW 14.5 km/h 24.1 km/h 78 % 0 mm 0 W/m2
23:31 13.7 °C 9.9 °C 1007.3 hPa SW 14.5 km/h 24.1 km/h 78 % 0 mm 0 W/m2
23:36 13.7 °C 10.1 °C 1007.3 hPa SW 14.5 km/h 25.7 km/h 79 % 0 mm 0 W/m2
23:41 13.7 °C 10.1 °C 1007.3 hPa SW 14.5 km/h 25.7 km/h 79 % 0 mm 0 W/m2
23:46 13.7 °C 10.1 °C 1007.3 hPa WSW 14.5 km/h 25.7 km/h 79 % 0 mm 0 W/m2
23:51 13.8 °C 10.1 °C 1007.3 hPa WSW 16.1 km/h 30.6 km/h 78 % 0 mm 0 W/m2
23:56 13.8 °C 10.1 °C 1007.3 hPa WSW 17.7 km/h 32.2 km/h 78 % 0 mm 0 W/m2
Delerius-Weather
Compliments of Weather Underground - 2.25 mb

Data updates at regular intervals.